Time;durP1;ratioP1;P1;durP2;ratioP2;P2;SDS_P1;SDS_P2;PMS_P1;PMS_P2;Temp;Humidity;BMP_temperature;BMP_pressure;BME280_temperature;BME280_humidity;BME280_pressure;Samples;Min_cycle;Max_cycle;Signal;HPM_P1;HPM_P2
2021/11/06 00:00:21;;;;;;;9.30;5.67;;;9.60;99.90;;;;;;5044553;28;20816;-76
2021/11/06 00:02:49;;;;;;;10.13;6.20;;;9.50;99.90;;;;;;5040068;28;20458;-77
2021/11/06 00:05:18;;;;;;;11.87;5.80;;;9.50;99.90;;;;;;5040855;28;20460;-78
2021/11/06 00:07:46;;;;;;;9.30;7.03;;;9.50;99.90;;;;;;5039183;28;20456;-78
2021/11/06 00:10:15;;;;;;;9.17;6.50;;;9.50;99.90;;;;;;5042823;28;20468;-78
2021/11/06 00:12:44;;;;;;;8.90;7.07;;;9.40;99.90;;;;;;5042555;28;20782;-77
2021/11/06 00:15:14;;;;;;;7.17;6.30;;;9.40;99.90;;;;;;5040206;28;20462;-78
2021/11/06 00:17:43;;;;;;;12.93;5.80;;;9.30;99.90;;;;;;5040855;28;20464;-77
2021/11/06 00:20:13;;;;;;;10.67;6.63;;;9.40;99.90;;;;;;5041733;28;20466;-79
2021/11/06 00:22:42;;;;;;;8.90;5.80;;;9.40;99.90;;;;;;5039964;28;20574;-79
2021/11/06 00:25:12;;;;;;;9.20;5.33;;;9.40;99.90;;;;;;5041085;28;20528;-77
2021/11/06 00:27:41;;;;;;;10.17;6.47;;;9.30;99.90;;;;;;5040162;28;20453;-78
2021/11/06 00:30:11;;;;;;;10.67;5.33;;;9.30;99.90;;;;;;5039509;28;20542;-78
2021/11/06 00:32:41;;;;;;;10.93;6.33;;;9.30;99.90;;;;;;5034557;28;20510;-78
2021/11/06 00:35:11;;;;;;;8.87;6.40;;;9.30;99.90;;;;;;5043052;28;20514;-79
2021/11/06 00:37:40;;;;;;;10.50;8.43;;;9.20;99.90;;;;;;5042826;28;20486;-78
2021/11/06 00:40:11;;;;;;;10.50;6.73;;;9.20;99.90;;;;;;5040137;28;20471;-77
2021/11/06 00:42:40;;;;;;;8.83;6.20;;;9.20;99.90;;;;;;5041452;28;20439;-79
2021/11/06 00:45:09;;;;;;;8.60;5.60;;;9.20;99.90;;;;;;5040239;28;21065;-79
2021/11/06 00:47:38;;;;;;;10.83;6.73;;;9.20;99.90;;;;;;5042972;28;20444;-77
2021/11/06 00:50:12;;;;;;;8.70;6.70;;;9.20;99.90;;;;;;5035097;28;20487;-78
2021/11/06 00:52:40;;;;;;;12.33;6.70;;;9.10;99.90;;;;;;5033666;28;20488;-78
2021/11/06 00:55:09;;;;;;;7.67;5.87;;;9.10;99.90;;;;;;5035866;28;20461;-76
2021/11/06 00:57:37;;;;;;;6.23;5.20;;;9.10;99.90;;;;;;5041285;28;20458;-78
2021/11/06 01:00:10;;;;;;;6.77;6.00;;;9.10;99.90;;;;;;5043947;28;20473;-77
2021/11/06 01:02:38;;;;;;;8.20;5.43;;;9.10;99.90;;;;;;5047697;28;20531;-78
2021/11/06 01:05:10;;;;;;;7.67;5.77;;;9.10;99.90;;;;;;5043267;28;20460;-78
2021/11/06 01:07:38;;;;;;;8.43;5.63;;;9.00;99.90;;;;;;5041583;28;20449;-78
2021/11/06 01:10:09;;;;;;;9.53;5.80;;;9.00;99.90;;;;;;5043698;28;20488;-78
2021/11/06 01:12:38;;;;;;;7.60;5.73;;;9.00;99.90;;;;;;5050133;28;20440;-78
2021/11/06 01:15:07;;;;;;;10.40;6.10;;;8.90;99.90;;;;;;5048694;28;20789;-78
2021/11/06 01:17:35;;;;;;;9.87;6.17;;;8.90;99.90;;;;;;5049149;28;20448;-78
2021/11/06 01:20:04;;;;;;;7.23;6.13;;;8.90;99.90;;;;;;5046772;28;20472;-77
2021/11/06 01:22:34;;;;;;;8.20;6.57;;;8.90;99.90;;;;;;5045701;28;20493;-77
2021/11/06 01:25:03;;;;;;;6.17;5.57;;;8.90;99.90;;;;;;5047903;28;20975;-77
2021/11/06 01:27:32;;;;;;;11.83;7.13;;;8.90;99.90;;;;;;5039105;28;20479;-78
2021/11/06 01:30:00;;;;;;;12.07;6.63;;;8.80;99.90;;;;;;5043303;28;20475;-77
2021/11/06 01:32:28;;;;;;;9.50;6.03;;;8.90;99.90;;;;;;5048622;28;20444;-77
2021/11/06 01:34:56;;;;;;;7.73;5.30;;;8.80;99.90;;;;;;5040333;28;20501;-77
2021/11/06 01:37:25;;;;;;;6.60;5.77;;;8.90;99.90;;;;;;5042179;28;20464;-77
2021/11/06 01:39:54;;;;;;;9.23;5.97;;;8.70;99.90;;;;;;5042994;28;20476;-76
2021/11/06 01:42:23;;;;;;;6.77;5.13;;;8.80;99.90;;;;;;5043515;28;20471;-77
2021/11/06 01:44:51;;;;;;;7.57;5.07;;;8.70;99.90;;;;;;5047129;28;20446;-77
2021/11/06 01:47:19;;;;;;;11.03;6.87;;;8.60;99.90;;;;;;5046684;28;20468;-76
2021/11/06 01:49:47;;;;;;;6.60;5.13;;;8.60;99.90;;;;;;5045898;28;20840;-77
2021/11/06 01:52:16;;;;;;;10.27;6.77;;;8.50;99.90;;;;;;5043593;28;20460;-77
2021/11/06 01:54:44;;;;;;;6.27;5.60;;;8.50;99.90;;;;;;5038777;28;20460;-78
2021/11/06 01:57:13;;;;;;;9.60;6.40;;;8.60;99.90;;;;;;5040449;28;20811;-78
2021/11/06 01:59:42;;;;;;;8.60;5.93;;;8.60;99.90;;;;;;5038341;28;20528;-77
2021/11/06 02:02:11;;;;;;;7.03;5.20;;;8.60;99.90;;;;;;5042748;28;20498;-77
2021/11/06 02:04:40;;;;;;;9.23;6.40;;;8.60;99.90;;;;;;5037070;28;20522;-77
2021/11/06 02:07:08;;;;;;;10.20;5.83;;;8.60;99.90;;;;;;5038336;28;20448;-77
2021/11/06 02:09:36;;;;;;;5.40;4.90;;;8.70;99.90;;;;;;5039312;28;20478;-77
2021/11/06 02:12:06;;;;;;;7.97;4.73;;;8.60;99.90;;;;;;5043750;28;20450;-78
2021/11/06 02:14:35;;;;;;;7.80;5.17;;;8.50;99.90;;;;;;5042914;28;20448;-78
2021/11/06 02:17:04;;;;;;;7.80;5.70;;;8.50;99.90;;;;;;5047149;28;20459;-78
2021/11/06 02:19:33;;;;;;;6.73;5.47;;;8.50;99.90;;;;;;5045292;28;20481;-79
2021/11/06 02:22:03;;;;;;;6.20;5.40;;;8.40;99.90;;;;;;5041423;28;20490;-77
2021/11/06 02:24:31;;;;;;;8.33;6.03;;;8.40;99.90;;;;;;5042027;28;20463;-77
2021/11/06 02:26:59;;;;;;;6.40;5.70;;;8.40;99.90;;;;;;5045437;28;20462;-77
2021/11/06 02:29:28;;;;;;;9.13;6.00;;;8.40;99.90;;;;;;5039783;28;20525;-76
2021/11/06 02:31:57;;;;;;;11.57;6.10;;;8.40;99.90;;;;;;5045497;28;20455;-77
2021/11/06 02:34:25;;;;;;;7.23;5.77;;;8.40;99.90;;;;;;5043054;28;20456;-78
2021/11/06 02:36:53;;;;;;;7.03;5.77;;;8.30;99.90;;;;;;5046750;28;20449;-77
2021/11/06 02:39:25;;;;;;;8.93;5.47;;;8.30;99.90;;;;;;5045240;28;20497;-77
2021/11/06 02:42:01;;;;;;;5.77;4.57;;;8.20;99.90;;;;;;5039071;28;21010;-77
2021/11/06 02:44:29;;;;;;;7.90;4.73;;;8.20;99.90;;;;;;5034064;28;20777;-78
2021/11/06 02:46:58;;;;;;;8.93;6.73;;;8.20;99.90;;;;;;5044465;28;20440;-77
2021/11/06 02:49:26;;;;;;;9.23;5.93;;;8.20;99.90;;;;;;5043458;28;20507;-77
2021/11/06 02:51:55;;;;;;;8.10;5.33;;;8.20;99.90;;;;;;5043558;28;20440;-78
2021/11/06 02:54:25;;;;;;;8.07;5.40;;;8.10;99.90;;;;;;5045047;28;20455;-78
2021/11/06 02:56:53;;;;;;;8.50;5.23;;;8.10;99.90;;;;;;5037142;28;20460;-78
2021/11/06 02:59:21;;;;;;;6.67;5.00;;;8.10;99.90;;;;;;5045270;28;20475;-79
2021/11/06 03:01:50;;;;;;;7.47;4.10;;;8.00;99.90;;;;;;5044748;28;20491;-79
2021/11/06 03:04:19;;;;;;;7.47;5.30;;;8.00;99.90;;;;;;5042796;28;21092;-78
2021/11/06 03:06:47;;;;;;;8.90;5.50;;;8.00;99.90;;;;;;5037732;28;20453;-78
2021/11/06 03:09:15;;;;;;;6.63;4.50;;;8.00;99.90;;;;;;5045399;28;20547;-78
2021/11/06 03:11:45;;;;;;;8.87;5.23;;;7.90;99.90;;;;;;5044130;28;20452;-77
2021/11/06 03:14:13;;;;;;;9.87;5.80;;;7.80;99.90;;;;;;5041050;28;20497;-77
2021/11/06 03:16:43;;;;;;;8.27;5.70;;;7.80;99.90;;;;;;5046060;28;20463;-78
2021/11/06 03:19:11;;;;;;;14.57;8.23;;;7.90;99.90;;;;;;5044160;28;20502;-77
2021/11/06 03:21:39;;;;;;;8.20;6.13;;;7.90;99.90;;;;;;5044499;28;20467;-78
2021/11/06 03:24:07;;;;;;;9.60;6.30;;;7.90;99.90;;;;;;5045529;28;20458;-78
2021/11/06 03:26:36;;;;;;;8.90;6.83;;;7.90;99.90;;;;;;5043016;28;20451;-78
2021/11/06 03:29:05;;;;;;;9.80;6.03;;;7.90;99.90;;;;;;5042896;28;20478;-77
2021/11/06 03:31:33;;;;;;;11.27;6.27;;;7.90;99.90;;;;;;5042824;28;20915;-79
2021/11/06 03:34:02;;;;;;;11.70;7.37;;;7.80;99.90;;;;;;5042813;28;20453;-79
2021/11/06 03:36:30;;;;;;;14.60;8.43;;;7.80;99.90;;;;;;5037307;28;20483;-79
2021/11/06 03:38:59;;;;;;;13.07;7.30;;;7.80;99.90;;;;;;5043532;28;20546;-79
2021/11/06 03:41:27;;;;;;;11.00;6.57;;;7.60;99.90;;;;;;5046305;28;20526;-78
2021/11/06 03:43:57;;;;;;;8.90;6.50;;;7.60;99.90;;;;;;5045804;28;20451;-80
2021/11/06 03:46:27;;;;;;;9.27;6.60;;;7.70;99.90;;;;;;5038062;28;20452;-79
2021/11/06 03:48:56;;;;;;;8.43;4.60;;;7.70;99.90;;;;;;5045361;28;21129;-79
2021/11/06 03:51:24;;;;;;;10.00;6.57;;;7.70;1.00;;;;;;5036727;28;20464;-78
2021/11/06 03:53:53;;;;;;;7.03;5.30;;;7.70;99.90;;;;;;5044321;28;20471;-79
2021/11/06 03:56:21;;;;;;;9.70;6.63;;;7.70;99.90;;;;;;5043776;28;20474;-78
2021/11/06 03:58:50;;;;;;;7.50;6.70;;;7.70;99.90;;;;;;5041757;28;20468;-79
2021/11/06 04:01:18;;;;;;;9.53;7.13;;;7.50;3.70;;;;;;5039855;28;20459;-78
2021/11/06 04:03:48;;;;;;;9.00;6.20;;;7.60;1.00;;;;;;5044539;28;20994;-78
2021/11/06 04:06:17;;;;;;;7.20;5.63;;;7.60;1.00;;;;;;5041601;28;21053;-80
2021/11/06 04:08:45;;;;;;;6.33;5.40;;;7.50;1.00;;;;;;5044362;28;20800;-77
2021/11/06 04:11:13;;;;;;;6.03;4.67;;;7.40;1.00;;;;;;5044840;28;20458;-78
2021/11/06 04:13:42;;;;;;;6.60;4.17;;;7.30;1.00;;;;;;5040688;28;20479;-78
2021/11/06 04:16:10;;;;;;;8.57;5.43;;;7.00;99.90;;;;;;5044551;28;20707;-78
2021/11/06 04:18:38;;;;;;;6.00;5.10;;;7.00;99.90;;;;;;5042154;28;20471;-77
2021/11/06 04:21:08;;;;;;;7.10;5.10;;;7.00;90.80;;;;;;5040721;28;20602;-76
2021/11/06 04:23:36;;;;;;;7.97;4.90;;;7.00;37.00;;;;;;5038032;28;20528;-79
2021/11/06 04:26:04;;;;;;;8.80;6.30;;;6.80;99.90;;;;;;5043237;28;20451;-78
2021/11/06 04:28:33;;;;;;;8.40;5.10;;;6.80;98.70;;;;;;5043230;28;20473;-78
2021/11/06 04:31:01;;;;;;;5.70;4.47;;;6.70;3.60;;;;;;5038103;28;20255;-78
2021/11/06 04:33:29;;;;;;;6.57;4.80;;;6.80;1.00;;;;;;5040962;28;20520;-78
2021/11/06 04:35:57;;;;;;;6.93;5.45;;;7.00;1.00;;;;;;5044145;28;20448;-78
2021/11/06 04:38:27;;;;;;;8.20;5.60;;;7.00;1.00;;;;;;5041701;28;20189;-78
2021/11/06 04:40:55;;;;;;;6.43;5.80;;;7.10;1.00;;;;;;5036360;28;20457;-78
2021/11/06 04:43:23;;;;;;;8.63;5.40;;;7.20;1.00;;;;;;5042446;28;20544;-78
2021/11/06 04:45:52;;;;;;;7.87;4.30;;;7.30;1.00;;;;;;5044904;28;20851;-77
2021/11/06 04:48:20;;;;;;;10.43;5.90;;;7.30;1.00;;;;;;5048605;28;20459;-78
2021/11/06 04:50:48;;;;;;;8.77;5.30;;;7.30;1.00;;;;;;5045662;28;20448;-77
2021/11/06 04:53:16;;;;;;;9.57;5.47;;;7.40;1.00;;;;;;5050845;28;20451;-77
2021/11/06 04:55:46;;;;;;;8.73;6.23;;;7.40;1.00;;;;;;5047658;28;20497;-77
2021/11/06 04:58:14;;;;;;;11.10;5.13;;;7.40;1.00;;;;;;5047021;28;20455;-78
2021/11/06 05:00:42;;;;;;;9.53;5.30;;;7.30;1.00;;;;;;5044650;28;20451;-78
2021/11/06 05:03:13;;;;;;;9.07;5.63;;;7.40;1.00;;;;;;5049372;28;20568;-78
2021/11/06 05:05:42;;;;;;;7.03;4.60;;;7.30;1.00;;;;;;5040257;28;20452;-77
2021/11/06 05:08:10;;;;;;;7.77;5.00;;;7.20;1.00;;;;;;5039844;28;20965;-79
2021/11/06 05:10:39;;;;;;;9.73;4.83;;;7.30;1.00;;;;;;5049096;28;20464;-76
2021/11/06 05:13:09;;;;;;;9.00;3.60;;;7.20;1.00;;;;;;5043336;28;20463;-78
2021/11/06 05:15:38;;;;;;;7.00;4.47;;;7.20;1.00;;;;;;5046021;28;20193;-76
2021/11/06 05:18:06;;;;;;;7.30;4.73;;;7.30;1.00;;;;;;5048604;28;20504;-78
2021/11/06 05:20:34;;;;;;;7.67;4.13;;;7.10;1.00;;;;;;5049338;28;20676;-78
2021/11/06 05:23:02;;;;;;;4.53;3.40;;;7.20;1.00;;;;;;5038588;28;20998;-78
2021/11/06 05:25:31;;;;;;;6.60;4.00;;;7.30;1.00;;;;;;5048738;28;20546;-78
2021/11/06 05:27:59;;;;;;;4.03;3.00;;;7.20;1.00;;;;;;5049452;28;20439;-78
2021/11/06 05:30:28;;;;;;;3.88;3.13;;;7.20;1.00;;;;;;5047727;28;21003;-78
2021/11/06 05:32:57;;;;;;;6.90;4.47;;;7.10;1.00;;;;;;5038240;28;20194;-76
2021/11/06 05:35:25;;;;;;;3.90;2.63;;;7.00;1.00;;;;;;5047234;28;20814;-78
2021/11/06 05:37:56;;;;;;;5.70;3.80;;;7.00;1.00;;;;;;5047630;28;20475;-78
2021/11/06 05:40:25;;;;;;;6.63;3.80;;;7.10;1.00;;;;;;5049814;28;20499;-78
2021/11/06 05:42:53;;;;;;;4.60;3.40;;;7.10;1.00;;;;;;5045676;28;20452;-77
2021/11/06 05:45:21;;;;;;;4.07;3.23;;;7.30;1.00;;;;;;5036834;28;20452;-79
2021/11/06 05:47:51;;;;;;;12.13;6.87;;;7.00;1.00;;;;;;5038075;28;20943;-78
2021/11/06 05:50:19;;;;;;;9.53;4.70;;;7.10;1.00;;;;;;5046041;28;20471;-78
2021/11/06 05:52:47;;;;;;;6.77;5.43;;;7.10;1.00;;;;;;5039170;28;20468;-77
2021/11/06 05:55:16;;;;;;;6.50;4.60;;;7.10;1.00;;;;;;5049742;28;20450;-79
2021/11/06 05:57:46;;;;;;;5.60;3.50;;;7.00;1.00;;;;;;5043288;28;20444;-79
2021/11/06 06:00:17;;;;;;;3.80;3.10;;;7.00;1.00;;;;;;5045704;28;20478;-78
2021/11/06 06:02:46;;;;;;;5.07;4.07;;;6.90;1.00;;;;;;5041363;28;20452;-78
2021/11/06 06:05:15;;;;;;;6.30;3.80;;;6.90;1.00;;;;;;5039782;28;20448;-77
2021/11/06 06:07:45;;;;;;;6.17;4.07;;;6.70;1.00;;;;;;5039217;28;20447;-77
2021/11/06 06:10:15;;;;;;;5.10;3.80;;;6.70;1.00;;;;;;5047433;28;20528;-78
2021/11/06 06:12:50;;;;;;;4.10;3.40;;;6.70;1.00;;;;;;5040416;28;20447;-78
2021/11/06 06:15:19;;;;;;;6.27;3.80;;;6.80;1.00;;;;;;5034129;28;20538;-77
2021/11/06 06:17:47;;;;;;;5.30;3.33;;;6.70;1.00;;;;;;5047995;28;20464;-77
2021/11/06 06:20:18;;;;;;;5.43;3.20;;;6.70;1.00;;;;;;5041756;28;20307;-77
2021/11/06 06:22:47;;;;;;;4.33;3.47;;;6.80;5.50;;;;;;5048983;28;20228;-78
2021/11/06 06:25:16;;;;;;;4.87;3.53;;;6.70;51.80;;;;;;5048756;28;20475;-78
2021/11/06 06:27:44;;;;;;;9.93;4.47;;;6.70;82.30;;;;;;5044293;28;20467;-77
2021/11/06 06:30:15;;;;;;;6.83;4.30;;;6.80;18.50;;;;;;5031711;28;20991;-76
2021/11/06 06:32:44;;;;;;;6.03;3.67;;;6.70;99.90;;;;;;5039400;28;20942;-76
2021/11/06 06:35:15;;;;;;;5.32;3.67;;;6.60;99.90;;;;;;5038294;28;20458;-75
2021/11/06 06:37:44;;;;;;;5.70;2.90;;;6.70;99.90;;;;;;5036243;28;20193;-77
2021/11/06 06:40:13;;;;;;;6.37;3.40;;;6.80;35.10;;;;;;5034448;28;20483;-77
2021/11/06 06:42:42;;;;;;;6.20;3.87;;;6.70;99.90;;;;;;5030781;28;20927;-77
2021/11/06 06:45:10;;;;;;;5.97;3.87;;;6.80;1.00;;;;;;5042814;28;20998;-77
2021/11/06 06:47:38;;;;;;;7.90;4.07;;;6.90;99.90;;;;;;5032435;28;20538;-77
2021/11/06 06:50:09;;;;;;;7.70;4.40;;;6.90;2.70;;;;;;5032944;28;21021;-77
2021/11/06 06:52:37;;;;;;;7.20;3.77;;;6.90;15.20;;;;;;5043766;28;20954;-77
2021/11/06 06:55:08;;;;;;;5.40;3.95;;;7.00;1.00;;;;;;5045802;28;20455;-77
2021/11/06 06:57:36;;;;;;;5.17;3.83;;;7.00;1.00;;;;;;5040311;28;20194;-81
2021/11/06 07:00:07;;;;;;;7.70;4.23;;;7.00;1.00;;;;;;5045366;28;20471;-81
2021/11/06 07:02:35;;;;;;;6.30;4.40;;;7.00;1.00;;;;;;5045854;28;20447;-77
2021/11/06 07:05:04;;;;;;;5.33;3.97;;;7.00;1.00;;;;;;5038993;28;20475;-77
2021/11/06 07:07:32;;;;;;;4.37;3.37;;;6.90;1.00;;;;;;5043144;28;20462;-76
2021/11/06 07:10:01;;;;;;;6.77;3.63;;;6.90;1.00;;;;;;5044918;28;20578;-78
2021/11/06 07:12:30;;;;;;;5.03;3.30;;;6.80;2.70;;;;;;5046508;28;21018;-78
2021/11/06 07:14:59;;;;;;;4.63;3.10;;;6.70;99.90;;;;;;5041048;28;20448;-78
2021/11/06 07:17:27;;;;;;;5.40;3.50;;;6.70;99.90;;;;;;5034703;28;20444;-77
2021/11/06 07:19:55;;;;;;;7.00;5.20;;;6.40;99.90;;;;;;5043083;28;21273;-76
2021/11/06 07:22:24;;;;;;;5.60;3.87;;;6.50;99.90;;;;;;5042735;28;20837;-76
2021/11/06 07:24:52;;;;;;;3.60;3.20;;;6.60;99.90;;;;;;5037445;28;20918;-77
2021/11/06 07:27:20;;;;;;;5.33;3.30;;;6.60;99.90;;;;;;5044808;28;20458;-77
2021/11/06 07:29:50;;;;;;;4.73;3.33;;;6.60;69.30;;;;;;5043836;28;21002;-73
2021/11/06 07:32:18;;;;;;;4.23;2.10;;;6.50;99.90;;;;;;5042069;28;20461;-76
2021/11/06 07:34:46;;;;;;;4.00;3.20;;;6.50;99.90;;;;;;5042962;28;20462;-77
2021/11/06 07:37:15;;;;;;;5.13;3.83;;;6.50;99.90;;;;;;5044832;28;20822;-76
2021/11/06 07:39:43;;;;;;;4.82;2.95;;;6.50;99.90;;;;;;5035303;28;20217;-76
2021/11/06 07:42:11;;;;;;;4.13;2.67;;;6.30;99.90;;;;;;5037568;28;20600;-76
2021/11/06 07:44:39;;;;;;;4.55;3.28;;;6.30;1.00;;;;;;5036986;28;20472;-76
2021/11/06 07:47:09;;;;;;;4.30;2.65;;;6.20;99.90;;;;;;5042477;28;20189;-76
2021/11/06 07:49:37;;;;;;;3.90;2.85;;;5.90;99.90;;;;;;5040814;28;20221;-77
2021/11/06 07:52:06;;;;;;;4.45;3.00;;;5.80;1.00;;;;;;5032201;28;20205;-76
2021/11/06 07:54:35;;;;;;;2.85;2.20;;;5.60;99.90;;;;;;5039220;28;20193;-76
2021/11/06 07:57:04;;;;;;;3.97;1.80;;;5.60;99.90;;;;;;5039645;28;20202;-76
2021/11/06 07:59:32;;;;;;;5.63;2.83;;;5.80;1.00;;;;;;5042851;28;20213;-76
2021/11/06 08:02:00;;;;;;;3.85;2.22;;;6.00;99.90;;;;;;5041058;28;20215;-77
2021/11/06 08:04:30;;;;;;;3.42;2.08;;;6.20;88.10;;;;;;5045873;28;20213;-76
2021/11/06 08:06:58;;;;;;;3.23;2.00;;;6.10;1.00;;;;;;5040012;28;20197;-75
2021/11/06 08:09:26;;;;;;;4.43;2.70;;;6.20;68.80;;;;;;5038410;28;20884;-76
2021/11/06 08:11:56;;;;;;;5.27;2.67;;;6.30;99.90;;;;;;5036307;28;20510;-77
2021/11/06 08:14:24;;;;;;;5.40;2.90;;;6.40;16.30;;;;;;5041039;28;20531;-76
2021/11/06 08:16:59;;;;;;;6.70;2.00;;;6.30;57.50;;;;;;5038369;28;20455;-79
2021/11/06 08:19:27;;;;;;;6.50;2.87;;;6.40;99.90;;;;;;5044089;28;20460;-78
2021/11/06 08:21:58;;;;;;;2.80;2.10;;;6.30;99.90;;;;;;5038955;28;20570;-77
2021/11/06 08:24:26;;;;;;;4.63;2.93;;;6.30;99.90;;;;;;5043128;28;20482;-77
2021/11/06 08:26:54;;;;;;;3.47;2.50;;;6.50;99.90;;;;;;5038345;28;20966;-78
2021/11/06 08:29:23;;;;;;;3.57;2.67;;;6.40;99.10;;;;;;5049122;28;20486;-77
2021/11/06 08:31:51;;;;;;;3.33;2.50;;;6.50;99.90;;;;;;5051629;28;20459;-79
2021/11/06 08:34:19;;;;;;;5.15;2.85;;;6.30;99.90;;;;;;5039216;28;20209;-76
2021/11/06 08:36:47;;;;;;;6.40;2.60;;;6.40;99.90;;;;;;5045046;28;20192;-78
2021/11/06 08:39:19;;;;;;;3.57;2.53;;;6.20;1.00;;;;;;5051329;28;20997;-78
2021/11/06 08:41:47;;;;;;;5.93;3.50;;;6.20;1.50;;;;;;5041359;28;20451;-77
2021/11/06 08:44:16;;;;;;;5.28;2.85;;;6.00;1.00;;;;;;5039106;28;20561;-76
2021/11/06 08:46:45;;;;;;;4.77;3.13;;;6.10;1.00;;;;;;5048575;28;20577;-78
2021/11/06 08:49:14;;;;;;;7.88;4.22;;;6.20;46.20;;;;;;5044693;28;20462;-77
2021/11/06 08:51:43;;;;;;;6.68;2.92;;;6.10;1.00;;;;;;5045236;28;20669;-77
2021/11/06 08:54:11;;;;;;;3.63;2.30;;;6.30;26.90;;;;;;5028092;28;20994;-76
2021/11/06 08:56:41;;;;;;;6.53;2.57;;;6.50;1.00;;;;;;5043575;28;20190;-78
2021/11/06 08:59:10;;;;;;;6.47;3.40;;;6.40;99.90;;;;;;5040321;28;20478;-77
2021/11/06 09:01:38;;;;;;;7.10;3.63;;;6.50;1.00;;;;;;5040586;28;20971;-78
2021/11/06 09:04:07;;;;;;;4.55;3.33;;;6.70;99.90;;;;;;5041649;28;20657;-77
2021/11/06 09:06:38;;;;;;;4.85;2.17;;;6.70;99.90;;;;;;5040355;28;20214;-75
2021/11/06 09:09:08;;;;;;;7.00;4.68;;;6.80;1.00;;;;;;5044576;28;20212;-70
2021/11/06 09:11:38;;;;;;;5.43;3.47;;;6.90;99.90;;;;;;5044932;28;20198;-70
2021/11/06 09:14:09;;;;;;;6.47;3.95;;;7.00;99.90;;;;;;5050741;28;20804;-78
2021/11/06 09:16:38;;;;;;;5.93;4.05;;;7.10;99.90;;;;;;5061720;28;20197;-77
2021/11/06 09:19:07;;;;;;;4.65;3.30;;;7.10;99.90;;;;;;5045478;28;20264;-79
2021/11/06 09:21:35;;;;;;;4.93;3.70;;;7.20;99.90;;;;;;5041428;28;20205;-77
2021/11/06 09:24:04;;;;;;;6.38;3.38;;;7.20;99.90;;;;;;5039845;28;20456;-76
2021/11/06 09:26:33;;;;;;;8.87;4.30;;;7.20;99.90;;;;;;5040415;28;20223;-77
2021/11/06 09:29:03;;;;;;;7.72;4.03;;;7.20;99.90;;;;;;5038847;28;20498;-77
2021/11/06 09:31:32;;;;;;;7.35;4.75;;;7.20;99.90;;;;;;5042391;28;20736;-77
2021/11/06 09:34:01;;;;;;;5.63;3.43;;;7.30;99.90;;;;;;5045801;28;20206;-78
2021/11/06 09:36:30;;;;;;;7.87;4.27;;;7.40;99.90;;;;;;5035728;28;20451;-77
2021/11/06 09:39:01;;;;;;;10.70;5.20;;;7.50;99.90;;;;;;5044121;28;20489;-76
2021/11/06 09:41:29;;;;;;;8.63;4.37;;;7.40;99.90;;;;;;5047030;28;20538;-78
2021/11/06 09:43:58;;;;;;;7.40;4.60;;;7.50;99.90;;;;;;5037096;28;20451;-77
2021/11/06 09:46:27;;;;;;;13.13;5.40;;;7.60;99.90;;;;;;5040625;28;20477;-79
2021/11/06 09:48:57;;;;;;;8.20;4.60;;;7.50;99.90;;;;;;5042357;28;20480;-77
2021/11/06 09:51:26;;;;;;;7.83;4.93;;;7.40;1.00;;;;;;5048386;28;20470;-77
2021/11/06 09:53:55;;;;;;;5.33;3.80;;;7.40;99.90;;;;;;5042037;28;20463;-78
2021/11/06 09:56:27;;;;;;;6.17;4.90;;;7.50;1.00;;;;;;5045840;28;20452;-76
2021/11/06 09:59:00;;;;;;;10.30;4.70;;;7.60;1.00;;;;;;5039340;28;20920;-76
2021/11/06 10:01:28;;;;;;;6.87;4.63;;;7.70;99.90;;;;;;5041378;28;20911;-77
2021/11/06 10:03:59;;;;;;;13.97;6.70;;;7.80;99.90;;;;;;5045022;28;20951;-77
2021/11/06 10:06:29;;;;;;;11.17;5.87;;;7.90;1.00;;;;;;5046391;28;20838;-76
2021/11/06 10:08:58;;;;;;;12.20;6.47;;;8.00;99.90;;;;;;5039020;28;20511;-75
2021/11/06 10:11:29;;;;;;;9.17;5.67;;;8.00;99.90;;;;;;5040398;28;20812;-76
2021/11/06 10:13:59;;;;;;;11.73;6.27;;;8.10;1.00;;;;;;5048086;28;20464;-78
2021/11/06 10:16:33;;;;;;;8.93;5.43;;;8.20;1.00;;;;;;5041925;28;20451;-78
2021/11/06 10:19:08;;;;;;;12.17;5.87;;;8.10;99.90;;;;;;5045395;28;20477;-77
2021/11/06 10:21:37;;;;;;;14.33;6.40;;;8.10;1.00;;;;;;5044431;28;20507;-78
2021/11/06 10:24:06;;;;;;;13.43;6.57;;;8.20;1.00;;;;;;5046469;28;20461;-78
2021/11/06 10:26:34;;;;;;;10.73;5.70;;;8.20;1.00;;;;;;5041368;28;20484;-78
2021/11/06 10:29:06;;;;;;;15.00;9.07;;;8.30;1.00;;;;;;5039548;28;20439;-78
2021/11/06 10:32:04;;;;;;;12.57;6.00;;;8.40;1.00;;;;;;5039986;28;20196;-78
2021/11/06 10:34:36;;;;;;;10.23;5.60;;;8.40;99.90;;;;;;5041146;28;20456;-79
2021/11/06 10:37:10;;;;;;;11.03;8.13;;;8.40;1.00;;;;;;5035897;28;20529;-78
2021/11/06 10:39:54;;;;;;;11.20;7.30;;;8.40;1.00;;;;;;5040455;28;20994;-77
2021/11/06 10:42:22;;;;;;;14.20;7.50;;;8.40;1.00;;;;;;5045642;28;20460;-79
2021/11/06 10:44:51;;;;;;;10.50;6.85;;;8.40;1.00;;;;;;5042002;28;20460;-78
2021/11/06 10:47:19;;;;;;;13.77;8.27;;;8.40;1.00;;;;;;5042610;28;20223;-80
2021/11/06 10:49:50;;;;;;;15.10;6.80;;;8.50;30.10;;;;;;5035078;28;20501;-79
2021/11/06 10:52:20;;;;;;;15.70;6.70;;;8.50;99.90;;;;;;5043863;28;20544;-80
2021/11/06 10:55:03;;;;;;;12.83;7.40;;;8.70;99.90;;;;;;5033082;28;20460;-80
2021/11/06 10:57:32;;;;;;;11.50;6.40;;;8.90;99.90;;;;;;5044141;28;20458;-79
2021/11/06 11:00:07;;;;;;;11.47;6.87;;;9.00;99.90;;;;;;5031287;28;21041;-76
2021/11/06 11:02:36;;;;;;;10.03;6.77;;;9.10;99.90;;;;;;5040520;28;20547;-79
2021/11/06 11:05:06;;;;;;;12.00;6.67;;;9.30;1.00;;;;;;5040903;28;20471;-79
2021/11/06 11:07:35;;;;;;;10.87;7.03;;;9.50;99.90;;;;;;5045363;28;20488;-79
2021/11/06 11:10:24;;;;;;;14.27;8.40;;;9.60;99.90;;;;;;5039303;28;20531;-79
2021/11/06 11:13:10;;;;;;;15.73;7.50;;;9.70;90.10;;;;;;5060130;28;20460;-76
2021/11/06 11:15:39;;;;;;;12.70;7.27;;;9.60;99.90;;;;;;5041417;28;20483;-78
2021/11/06 11:18:08;;;;;;;11.30;7.13;;;9.60;99.90;;;;;;5039224;28;20805;-78
2021/11/06 11:20:39;;;;;;;12.80;7.97;;;9.70;99.90;;;;;;5041087;28;20482;-79
2021/11/06 11:23:13;;;;;;;14.20;8.67;;;9.80;99.90;;;;;;5042007;28;20853;-79
2021/11/06 11:25:43;;;;;;;13.87;8.30;;;9.80;99.90;;;;;;5035636;28;20476;-78
2021/11/06 11:28:13;;;;;;;14.73;8.43;;;9.80;99.90;;;;;;5039638;28;20488;-80
2021/11/06 11:30:42;;;;;;;10.20;7.10;;;9.90;99.90;;;;;;5043356;28;20484;-79
2021/11/06 11:33:32;;;;;;;15.77;7.68;;;10.00;99.90;;;;;;5037921;28;20790;-79
2021/11/06 11:36:02;;;;;;;11.00;6.40;;;10.20;99.90;;;;;;5034160;28;20208;-78
2021/11/06 11:38:31;;;;;;;10.17;7.60;;;10.40;1.00;;;;;;5043486;28;20469;-79
2021/11/06 11:41:25;;;;;;;11.33;7.73;;;10.30;1.00;;;;;;5032626;28;20469;-79
2021/11/06 11:44:12;;;;;;;12.07;6.70;;;10.40;50.80;;;;;;5040316;28;20453;-78
2021/11/06 11:46:46;;;;;;;17.50;8.20;;;10.60;1.00;;;;;;5040583;28;20481;-79
2021/11/06 11:49:15;;;;;;;9.80;5.83;;;10.70;1.00;;;;;;5045730;28;20474;-79
2021/11/06 11:51:45;;;;;;;10.73;7.63;;;10.90;1.00;;;;;;5054851;28;20455;-79
2021/11/06 11:54:14;;;;;;;10.77;6.20;;;11.00;1.00;;;;;;5038195;28;20188;-78
2021/11/06 11:56:42;;;;;;;7.30;5.63;;;11.10;99.90;;;;;;5042516;28;20446;-79
2021/11/06 11:59:31;;;;;;;6.50;5.80;;;11.20;1.00;;;;;;5040451;28;20473;-75
2021/11/06 12:02:18;;;;;;;10.03;6.80;;;11.20;99.90;;;;;;5036946;28;20464;-79
2021/11/06 12:04:48;;;;;;;9.83;5.30;;;11.30;99.90;;;;;;5039382;28;20447;-77
2021/11/06 12:07:20;;;;;;;9.80;6.17;;;11.40;1.00;;;;;;5043112;28;20475;-79
2021/11/06 12:09:48;;;;;;;11.77;6.20;;;11.50;99.90;;;;;;5043665;28;20471;-79
2021/11/06 12:12:16;;;;;;;10.27;6.77;;;11.60;99.90;;;;;;5043324;28;20446;-82
2021/11/06 12:14:51;;;;;;;6.20;4.53;;;11.70;99.90;;;;;;5038774;28;20700;-79
2021/11/06 12:17:33;;;;;;;7.67;5.30;;;11.80;99.90;;;;;;5041467;28;20455;-79
2021/11/06 12:20:01;;;;;;;7.60;5.33;;;11.70;99.90;;;;;;5035714;28;20528;-79
2021/11/06 12:22:32;;;;;;;8.07;4.90;;;11.80;99.90;;;;;;5042166;28;20501;-79
2021/11/06 12:25:16;;;;;;;5.20;4.20;;;11.90;99.90;;;;;;5043689;28;20463;-79
2021/11/06 12:27:52;;;;;;;10.50;5.83;;;11.90;99.90;;;;;;5042084;28;20475;-80
2021/11/06 12:30:28;;;;;;;9.17;5.57;;;11.90;99.90;;;;;;5038714;28;20478;-78
2021/11/06 12:32:57;;;;;;;7.00;5.17;;;11.80;99.90;;;;;;5034903;28;20455;-77
2021/11/06 12:35:27;;;;;;;6.77;5.00;;;11.90;99.90;;;;;;5043817;28;20458;-79
2021/11/06 12:37:59;;;;;;;5.40;4.50;;;11.90;99.90;;;;;;5034343;28;20448;-78
2021/11/06 12:40:47;;;;;;;5.77;3.80;;;11.90;99.90;;;;;;5040507;28;20480;-78
2021/11/06 12:43:22;;;;;;;6.90;4.80;;;11.90;99.90;;;;;;5037225;28;20455;-79
2021/11/06 12:45:53;;;;;;;5.73;4.40;;;11.90;99.90;;;;;;5041644;28;20473;-79
2021/11/06 12:48:42;;;;;;;9.73;5.30;;;12.10;99.90;;;;;;5036486;28;20475;-77
2021/11/06 12:51:12;;;;;;;7.57;5.00;;;12.00;99.90;;;;;;5036337;28;20493;-78
2021/11/06 12:53:45;;;;;;;8.70;4.87;;;11.90;99.90;;;;;;5039711;28;20470;-79
2021/11/06 12:56:15;;;;;;;9.00;4.97;;;11.90;99.90;;;;;;5044761;28;20959;-78
2021/11/06 12:58:45;;;;;;;8.40;5.70;;;12.00;99.90;;;;;;5040531;28;20494;-77
2021/11/06 13:01:19;;;;;;;5.80;3.63;;;12.10;99.90;;;;;;5032327;28;20547;-78
2021/11/06 13:03:48;;;;;;;5.33;2.60;;;12.20;99.90;;;;;;5032493;28;20454;-78
2021/11/06 13:06:35;;;;;;;6.17;3.20;;;12.20;99.90;;;;;;5041488;28;20587;-78
2021/11/06 13:09:12;;;;;;;4.37;2.83;;;12.20;99.90;;;;;;5049068;28;20827;-80
2021/11/06 13:11:59;;;;;;;5.57;2.40;;;12.30;99.90;;;;;;5044532;28;20451;-79